Time;durP1;ratioP1;P1;durP2;ratioP2;P2;SDS_P1;SDS_P2;PMS_P1;PMS_P2;Temp;Humidity;BMP_temperature;BMP_pressure;BME280_temperature;BME280_humidity;BME280_pressure;Samples;Min_cycle;Max_cycle;Signal;HPM_P1;HPM_P2
2022/02/20 00:00:31;;;;;;;1.23;0.52;;;16.10;64.00;;;;;;5065163;28;20037;-27
2022/02/20 00:02:57;;;;;;;0.55;0.50;;;16.10;64.10;;;;;;5050962;28;20042;-27
2022/02/20 00:05:22;;;;;;;2.00;0.50;;;16.10;64.00;;;;;;5071713;28;20044;-27
2022/02/20 00:07:48;;;;;;;0.43;0.32;;;16.10;64.00;;;;;;5070576;28;20052;-26
2022/02/20 00:10:14;;;;;;;0.77;0.50;;;16.10;64.10;;;;;;5052657;28;20569;-27
2022/02/20 00:12:39;;;;;;;0.77;0.60;;;16.10;64.10;;;;;;5059805;28;20053;-27
2022/02/20 00:15:05;;;;;;;0.77;0.55;;;16.10;64.10;;;;;;5070850;28;20076;-27
2022/02/20 00:17:31;;;;;;;0.50;0.50;;;16.10;64.10;;;;;;5065194;28;20071;-27
2022/02/20 00:19:56;;;;;;;0.60;0.60;;;16.10;64.10;;;;;;5065964;28;20040;-27
2022/02/20 00:22:22;;;;;;;0.75;0.57;;;16.10;64.10;;;;;;5071172;28;20045;-27
2022/02/20 00:24:47;;;;;;;0.57;0.43;;;16.10;64.20;;;;;;5056687;28;20053;-27
2022/02/20 00:27:13;;;;;;;1.55;0.50;;;16.10;64.20;;;;;;5051137;28;20128;-27
2022/02/20 00:29:39;;;;;;;0.47;0.47;;;16.00;64.20;;;;;;5054902;28;20090;-27
2022/02/20 00:32:04;;;;;;;0.77;0.60;;;16.00;64.20;;;;;;5056225;28;20113;-28
2022/02/20 00:34:30;;;;;;;0.38;0.38;;;16.00;64.30;;;;;;5071232;28;20111;-27
2022/02/20 00:36:55;;;;;;;0.77;0.50;;;16.10;64.20;;;;;;5070478;28;20049;-27
2022/02/20 00:39:21;;;;;;;0.75;0.60;;;16.10;64.10;;;;;;5066889;28;20079;-27
2022/02/20 00:41:47;;;;;;;0.60;0.40;;;16.10;64.10;;;;;;5054653;28;20103;-27
2022/02/20 00:44:12;;;;;;;0.85;0.50;;;16.00;64.20;;;;;;5055082;28;20045;-27
2022/02/20 00:46:38;;;;;;;0.65;0.40;;;16.10;64.20;;;;;;5072023;28;20893;-27
2022/02/20 00:49:03;;;;;;;1.27;0.75;;;16.10;64.10;;;;;;5071819;28;20064;-27
2022/02/20 00:51:29;;;;;;;0.90;0.40;;;16.00;64.10;;;;;;5074346;28;20052;-27
2022/02/20 00:53:55;;;;;;;0.85;0.50;;;16.10;64.20;;;;;;5072496;28;20037;-27
2022/02/20 00:56:20;;;;;;;0.60;0.50;;;16.10;64.10;;;;;;5074983;28;20055;-27
2022/02/20 00:58:46;;;;;;;0.57;0.32;;;16.00;64.20;;;;;;5074104;28;20041;-26
2022/02/20 01:01:11;;;;;;;1.73;0.50;;;16.10;64.00;;;;;;5063442;28;20072;-27
2022/02/20 01:03:37;;;;;;;0.60;0.60;;;16.10;64.00;;;;;;5059531;28;20094;-27
2022/02/20 01:06:03;;;;;;;0.57;0.50;;;16.00;64.20;;;;;;5071994;28;20078;-27
2022/02/20 01:08:28;;;;;;;0.80;0.60;;;16.00;64.20;;;;;;5058583;28;20485;-27
2022/02/20 01:10:54;;;;;;;0.75;0.68;;;16.00;64.20;;;;;;5067629;28;20052;-26
2022/02/20 01:13:19;;;;;;;0.75;0.70;;;16.00;64.10;;;;;;5064868;28;20528;-27
2022/02/20 01:15:45;;;;;;;0.60;0.40;;;16.00;64.20;;;;;;5074681;28;20051;-27
2022/02/20 01:18:11;;;;;;;0.57;0.50;;;16.10;64.10;;;;;;5059382;28;20461;-27
2022/02/20 01:20:36;;;;;;;0.65;0.50;;;16.10;64.10;;;;;;5074581;28;20497;-27
2022/02/20 01:23:02;;;;;;;0.60;0.40;;;16.00;64.20;;;;;;5063899;28;20517;-27
2022/02/20 01:25:27;;;;;;;0.52;0.52;;;16.00;64.10;;;;;;5064365;28;20048;-27
2022/02/20 01:27:53;;;;;;;0.55;0.40;;;16.00;64.20;;;;;;5073710;28;20421;-26
2022/02/20 01:30:18;;;;;;;0.85;0.60;;;16.00;64.10;;;;;;5066144;28;20581;-27
2022/02/20 01:32:44;;;;;;;0.60;0.43;;;16.00;64.20;;;;;;5054601;28;20045;-27
2022/02/20 01:35:10;;;;;;;0.68;0.50;;;16.00;64.10;;;;;;5065555;28;20391;-27
2022/02/20 01:37:35;;;;;;;0.50;0.50;;;16.00;65.00;;;;;;5069613;28;20041;-27
2022/02/20 01:40:02;;;;;;;1.08;0.55;;;16.00;64.30;;;;;;5055934;28;20033;-27
2022/02/20 01:42:27;;;;;;;0.90;0.50;;;16.00;64.20;;;;;;5057598;28;20044;-27
2022/02/20 01:44:53;;;;;;;0.50;0.40;;;16.00;64.30;;;;;;5057476;28;20041;-26
2022/02/20 01:47:18;;;;;;;0.70;0.60;;;16.00;64.10;;;;;;5057281;28;20041;-27
2022/02/20 01:49:44;;;;;;;0.50;0.47;;;16.00;64.00;;;;;;5057810;28;20103;-27
2022/02/20 01:52:11;;;;;;;0.63;0.52;;;16.00;63.90;;;;;;5057030;28;20128;-27
2022/02/20 01:54:37;;;;;;;0.40;0.40;;;16.00;64.10;;;;;;5060898;28;20045;-27
2022/02/20 01:57:03;;;;;;;0.85;0.57;;;15.90;64.10;;;;;;5071696;28;20040;-27
2022/02/20 01:59:28;;;;;;;0.40;0.40;;;16.00;64.30;;;;;;5064586;28;20041;-27
2022/02/20 02:01:54;;;;;;;1.08;0.63;;;15.90;64.20;;;;;;5067981;28;20072;-26
2022/02/20 02:04:22;;;;;;;1.05;0.65;;;16.00;64.10;;;;;;5064625;28;20137;-27
2022/02/20 02:06:48;;;;;;;0.68;0.60;;;16.00;64.10;;;;;;5070893;28;20044;-27
2022/02/20 02:09:14;;;;;;;1.02;0.60;;;16.00;64.00;;;;;;5076944;28;20040;-27
2022/02/20 02:11:40;;;;;;;0.95;0.57;;;16.00;64.00;;;;;;5077435;28;20413;-27
2022/02/20 02:14:05;;;;;;;0.60;0.50;;;15.90;63.90;;;;;;5075664;28;20044;-27
2022/02/20 02:16:31;;;;;;;0.60;0.43;;;16.00;64.00;;;;;;5077253;28;20070;-27
2022/02/20 02:18:57;;;;;;;1.55;0.70;;;16.00;64.00;;;;;;5076426;28;20072;-27
2022/02/20 02:21:22;;;;;;;0.80;0.57;;;15.90;64.20;;;;;;5077300;28;20076;-27
2022/02/20 02:23:48;;;;;;;1.02;0.70;;;15.80;64.40;;;;;;5063266;28;20047;-27
2022/02/20 02:26:15;;;;;;;0.70;0.50;;;15.80;64.60;;;;;;5064961;28;20110;-27
2022/02/20 02:28:41;;;;;;;1.25;0.60;;;15.70;64.60;;;;;;5058173;28;20041;-27
2022/02/20 02:31:09;;;;;;;0.70;0.60;;;15.70;64.80;;;;;;5076472;28;20044;-27
2022/02/20 02:33:35;;;;;;;0.68;0.52;;;15.70;64.80;;;;;;5070261;28;20045;-27
2022/02/20 02:36:02;;;;;;;0.82;0.50;;;15.70;64.80;;;;;;5058813;28;20073;-26
2022/02/20 02:38:29;;;;;;;0.63;0.52;;;15.70;64.90;;;;;;5065359;28;20052;-27
2022/02/20 02:40:59;;;;;;;0.75;0.60;;;15.70;64.80;;;;;;5056326;28;20052;-27
2022/02/20 02:43:25;;;;;;;1.02;0.80;;;15.70;65.00;;;;;;5056423;28;20072;-27
2022/02/20 02:45:51;;;;;;;0.90;0.47;;;15.70;64.90;;;;;;5056578;28;20049;-22
2022/02/20 02:48:17;;;;;;;0.70;0.60;;;15.70;65.00;;;;;;5056722;28;20045;-27
2022/02/20 02:50:42;;;;;;;0.30;0.30;;;15.70;65.00;;;;;;5056649;28;20084;-27
2022/02/20 02:53:08;;;;;;;1.05;0.60;;;15.60;65.00;;;;;;5072854;28;20401;-27
2022/02/20 02:55:34;;;;;;;1.05;0.60;;;15.70;64.90;;;;;;5069323;28;20056;-27
2022/02/20 02:58:00;;;;;;;0.70;0.65;;;15.70;64.90;;;;;;5056106;28;20532;-27
2022/02/20 03:00:25;;;;;;;0.88;0.57;;;15.70;65.00;;;;;;5055464;28;20067;-27
2022/02/20 03:02:51;;;;;;;0.73;0.63;;;15.70;64.90;;;;;;5059034;28;20048;-27
2022/02/20 03:05:17;;;;;;;1.30;0.70;;;15.70;64.80;;;;;;5072477;28;20067;-27
2022/02/20 03:07:43;;;;;;;1.02;0.52;;;15.60;64.90;;;;;;5076281;28;20517;-27
2022/02/20 03:10:09;;;;;;;1.35;0.50;;;15.70;65.00;;;;;;5075641;28;20050;-27
2022/02/20 03:12:35;;;;;;;0.65;0.43;;;15.70;65.00;;;;;;5067381;28;20505;-26
2022/02/20 03:15:00;;;;;;;0.57;0.50;;;15.70;65.10;;;;;;5055342;28;20075;-27
2022/02/20 03:17:26;;;;;;;0.65;0.50;;;15.70;65.00;;;;;;5056111;28;20041;-27
2022/02/20 03:19:52;;;;;;;0.75;0.57;;;15.80;64.50;;;;;;5056314;28;20116;-27
2022/02/20 03:22:17;;;;;;;0.63;0.40;;;15.80;64.50;;;;;;5055102;28;20045;-27
2022/02/20 03:24:43;;;;;;;0.82;0.60;;;15.70;65.50;;;;;;5056036;28;20453;-27
2022/02/20 03:27:10;;;;;;;0.85;0.40;;;15.70;64.80;;;;;;5055622;28;20041;-27
2022/02/20 03:29:35;;;;;;;1.55;0.60;;;15.70;64.80;;;;;;5055672;28;20478;-27
2022/02/20 03:32:01;;;;;;;0.70;0.50;;;15.70;64.80;;;;;;5055467;28;20104;-27
2022/02/20 03:34:27;;;;;;;0.95;0.70;;;15.70;65.10;;;;;;5055848;28;20410;-27
2022/02/20 03:36:52;;;;;;;0.65;0.55;;;15.80;64.80;;;;;;5058113;28;20504;-27
2022/02/20 03:39:18;;;;;;;0.88;0.57;;;15.80;64.90;;;;;;5061633;28;20057;-27
2022/02/20 03:41:44;;;;;;;1.05;0.65;;;15.70;64.90;;;;;;5055729;28;20049;-27
2022/02/20 03:44:09;;;;;;;0.98;0.63;;;15.70;64.90;;;;;;5054911;28;20041;-26
2022/02/20 03:46:35;;;;;;;0.73;0.52;;;15.70;65.10;;;;;;5063937;28;20131;-27
2022/02/20 03:49:01;;;;;;;0.95;0.52;;;15.80;64.90;;;;;;5075100;28;20436;-26
2022/02/20 03:51:27;;;;;;;0.55;0.45;;;15.70;65.10;;;;;;5075635;28;20127;-27
2022/02/20 03:53:52;;;;;;;1.08;0.80;;;15.60;65.30;;;;;;5070077;28;20076;-27
2022/02/20 03:56:18;;;;;;;0.80;0.50;;;15.60;65.40;;;;;;5054930;28;20045;-27
2022/02/20 03:58:44;;;;;;;0.75;0.60;;;15.60;65.40;;;;;;5055369;28;20051;-27
2022/02/20 04:01:09;;;;;;;1.25;0.60;;;15.60;65.30;;;;;;5062088;28;20577;-27
2022/02/20 04:03:35;;;;;;;0.57;0.40;;;15.50;65.50;;;;;;5055731;28;20048;-27
2022/02/20 04:06:01;;;;;;;0.60;0.50;;;15.50;65.60;;;;;;5061873;28;20086;-27
2022/02/20 04:08:26;;;;;;;0.73;0.50;;;15.50;65.50;;;;;;5062452;28;20119;-27
2022/02/20 04:10:52;;;;;;;1.05;0.50;;;15.50;65.50;;;;;;5057261;28;20049;-27
2022/02/20 04:13:17;;;;;;;1.15;0.70;;;15.60;65.50;;;;;;5056744;28;20060;-27
2022/02/20 04:15:43;;;;;;;1.23;0.50;;;15.50;65.60;;;;;;5055534;28;20045;-27
2022/02/20 04:18:08;;;;;;;1.00;0.57;;;15.50;65.60;;;;;;5054747;28;20226;-27
2022/02/20 04:20:34;;;;;;;0.68;0.50;;;15.50;65.70;;;;;;5055435;28;20118;-27
2022/02/20 04:23:00;;;;;;;1.20;0.50;;;15.50;65.70;;;;;;5054869;28;20135;-27
2022/02/20 04:25:25;;;;;;;0.88;0.55;;;15.50;65.60;;;;;;5054897;28;20052;-27
2022/02/20 04:27:51;;;;;;;0.70;0.40;;;15.50;65.70;;;;;;5055543;28;20041;-27
2022/02/20 04:30:18;;;;;;;1.20;0.45;;;15.50;65.60;;;;;;5054469;28;20060;-27
2022/02/20 04:32:44;;;;;;;0.60;0.47;;;15.50;65.60;;;;;;5055225;28;20123;-27
2022/02/20 04:35:10;;;;;;;0.52;0.43;;;15.50;65.70;;;;;;5054831;28;20061;-27
2022/02/20 04:37:36;;;;;;;0.60;0.47;;;15.50;65.70;;;;;;5055637;28;20464;-27
2022/02/20 04:40:05;;;;;;;0.50;0.50;;;15.50;65.70;;;;;;5065409;28;20128;-26
2022/02/20 04:42:30;;;;;;;0.90;0.60;;;15.50;65.50;;;;;;5053678;28;20206;-27
2022/02/20 04:44:56;;;;;;;0.80;0.57;;;15.50;65.80;;;;;;5055039;28;20115;-27
2022/02/20 04:47:22;;;;;;;0.60;0.47;;;15.50;65.80;;;;;;5068970;28;20048;-27
2022/02/20 04:49:47;;;;;;;1.33;0.50;;;15.50;65.90;;;;;;5061653;28;20049;-27
2022/02/20 04:52:13;;;;;;;0.57;0.50;;;15.50;65.70;;;;;;5054234;28;20037;-27
2022/02/20 04:54:39;;;;;;;0.60;0.60;;;15.50;65.70;;;;;;5054956;28;20459;-27
2022/02/20 04:57:04;;;;;;;0.73;0.50;;;15.50;65.80;;;;;;5052961;28;20041;-26
2022/02/20 04:59:30;;;;;;;0.80;0.43;;;15.50;65.80;;;;;;5055084;28;20136;-27
2022/02/20 05:01:55;;;;;;;0.98;0.50;;;15.50;65.80;;;;;;5054819;28;20527;-27
2022/02/20 05:04:21;;;;;;;0.50;0.50;;;15.50;65.80;;;;;;5054161;28;20059;-27
2022/02/20 05:06:47;;;;;;;0.57;0.50;;;15.50;65.80;;;;;;5068158;28;20033;-27
2022/02/20 05:09:12;;;;;;;0.80;0.60;;;15.50;65.60;;;;;;5072821;28;20109;-27
2022/02/20 05:11:38;;;;;;;1.20;0.65;;;15.50;65.80;;;;;;5054827;28;20037;-27
2022/02/20 05:14:03;;;;;;;0.52;0.50;;;15.50;65.70;;;;;;5054084;28;20053;-27
2022/02/20 05:16:30;;;;;;;1.27;0.52;;;15.50;65.80;;;;;;5054810;28;20099;-27
2022/02/20 05:18:56;;;;;;;0.70;0.43;;;15.50;65.50;;;;;;5057047;28;20049;-27
2022/02/20 05:21:22;;;;;;;0.88;0.38;;;15.60;65.60;;;;;;5071802;28;20382;-27
2022/02/20 05:23:48;;;;;;;0.90;0.47;;;15.50;65.50;;;;;;5074744;28;20045;-27
2022/02/20 05:26:13;;;;;;;0.68;0.40;;;15.50;65.70;;;;;;5068911;28;20417;-27
2022/02/20 05:28:40;;;;;;;0.70;0.60;;;15.50;65.80;;;;;;5077849;28;20052;-27
2022/02/20 05:31:05;;;;;;;0.70;0.40;;;15.50;65.80;;;;;;5077550;28;20064;-26
2022/02/20 05:33:31;;;;;;;1.10;0.60;;;15.50;65.90;;;;;;5076818;28;20048;-27
2022/02/20 05:35:56;;;;;;;0.90;0.70;;;15.50;65.80;;;;;;5069802;28;20045;-27
2022/02/20 05:38:22;;;;;;;0.75;0.40;;;15.40;65.80;;;;;;5057435;28;20060;-27
2022/02/20 05:40:47;;;;;;;1.00;0.40;;;15.40;65.90;;;;;;5058277;28;20047;-29
2022/02/20 05:43:13;;;;;;;1.75;0.80;;;15.40;65.80;;;;;;5057138;28;20056;-27
2022/02/20 05:45:39;;;;;;;1.35;0.52;;;15.50;65.90;;;;;;5058120;28;20041;-27
2022/02/20 05:48:04;;;;;;;0.70;0.68;;;15.40;66.00;;;;;;5062388;28;20044;-27
2022/02/20 05:50:30;;;;;;;2.00;0.80;;;15.50;65.90;;;;;;5058101;28;20581;-27
2022/02/20 05:52:56;;;;;;;0.82;0.68;;;15.40;65.80;;;;;;5057505;28;20132;-27
2022/02/20 05:55:22;;;;;;;0.73;0.60;;;15.40;65.80;;;;;;5057188;28;20138;-27
2022/02/20 05:57:49;;;;;;;0.90;0.50;;;15.40;65.70;;;;;;5065381;28;20048;-27
2022/02/20 06:00:17;;;;;;;0.80;0.47;;;15.50;65.90;;;;;;5060516;28;20055;-26
2022/02/20 06:02:42;;;;;;;1.13;0.60;;;15.50;65.90;;;;;;5057607;28;20317;-27
2022/02/20 06:05:09;;;;;;;0.63;0.50;;;15.40;66.00;;;;;;5056789;28;20302;-26
2022/02/20 06:07:34;;;;;;;0.70;0.60;;;15.40;66.00;;;;;;5077494;28;20314;-27
2022/02/20 06:10:00;;;;;;;0.70;0.43;;;15.40;66.10;;;;;;5077574;27;20241;-27
2022/02/20 06:12:27;;;;;;;1.02;0.70;;;15.40;65.90;;;;;;5076997;28;20045;-27
2022/02/20 06:14:52;;;;;;;0.85;0.50;;;15.40;65.90;;;;;;5063865;28;20041;-27
2022/02/20 06:17:18;;;;;;;0.80;0.63;;;15.40;66.00;;;;;;5056447;28;20095;-27
2022/02/20 06:19:43;;;;;;;1.05;0.57;;;15.40;65.90;;;;;;5057257;28;20506;-27
2022/02/20 06:22:09;;;;;;;0.75;0.60;;;15.40;65.90;;;;;;5056490;28;20052;-26
2022/02/20 06:24:35;;;;;;;1.08;0.60;;;15.40;66.10;;;;;;5057371;28;20045;-27
2022/02/20 06:27:00;;;;;;;0.98;0.60;;;15.40;66.10;;;;;;5057123;28;20052;-27
2022/02/20 06:29:26;;;;;;;0.95;0.55;;;15.50;65.90;;;;;;5056355;28;20048;-27
2022/02/20 06:31:51;;;;;;;0.90;0.68;;;15.40;66.00;;;;;;5056894;28;20056;-27
2022/02/20 06:34:17;;;;;;;1.00;0.60;;;15.40;66.10;;;;;;5056037;28;20037;-27
2022/02/20 06:36:43;;;;;;;0.95;0.70;;;15.40;66.20;;;;;;5063086;28;20077;-27
2022/02/20 06:39:10;;;;;;;0.50;0.50;;;15.40;66.00;;;;;;5067686;28;21135;-27
2022/02/20 06:41:38;;;;;;;0.60;0.50;;;15.40;66.00;;;;;;5057097;28;20045;-27
2022/02/20 06:44:05;;;;;;;0.75;0.50;;;15.40;66.00;;;;;;5056771;28;20041;-27
2022/02/20 06:46:30;;;;;;;0.80;0.50;;;15.40;66.00;;;;;;5063707;28;20044;-29
2022/02/20 06:48:56;;;;;;;0.60;0.40;;;15.40;65.90;;;;;;5059165;28;20075;-27
2022/02/20 06:51:22;;;;;;;1.00;0.68;;;15.50;66.10;;;;;;5056109;28;20067;-27
2022/02/20 06:53:47;;;;;;;1.02;0.80;;;15.40;65.80;;;;;;5056609;28;20620;-27
2022/02/20 06:56:13;;;;;;;0.60;0.60;;;15.50;65.70;;;;;;5065337;28;20044;-27
2022/02/20 06:58:39;;;;;;;0.70;0.50;;;15.50;65.80;;;;;;5065120;28;20052;-27
2022/02/20 07:01:05;;;;;;;0.60;0.38;;;15.60;65.60;;;;;;5066897;28;20048;-27
2022/02/20 07:03:30;;;;;;;0.93;0.40;;;15.60;65.30;;;;;;5067145;28;20044;-27
2022/02/20 07:05:56;;;;;;;0.68;0.45;;;15.60;65.60;;;;;;5065701;28;20055;-27
2022/02/20 07:08:21;;;;;;;0.77;0.50;;;15.50;65.60;;;;;;5061271;28;20467;-27
2022/02/20 07:10:47;;;;;;;0.52;0.40;;;15.50;65.70;;;;;;5070104;28;20135;-27
2022/02/20 07:13:12;;;;;;;1.25;0.40;;;15.50;65.60;;;;;;5063729;28;20036;-26
2022/02/20 07:15:38;;;;;;;1.02;0.50;;;15.50;65.60;;;;;;5062819;28;20060;-27
2022/02/20 07:18:04;;;;;;;0.70;0.35;;;15.60;65.70;;;;;;5066323;28;20079;-27
2022/02/20 07:20:30;;;;;;;0.60;0.40;;;15.50;65.60;;;;;;5067519;28;20044;-27
2022/02/20 07:22:56;;;;;;;0.80;0.50;;;15.60;65.40;;;;;;5066609;28;20040;-28
2022/02/20 07:25:21;;;;;;;0.88;0.32;;;15.50;65.50;;;;;;5066785;28;20059;-27
2022/02/20 07:27:53;;;;;;;0.50;0.47;;;15.50;65.60;;;;;;5066111;28;20453;-29
2022/02/20 07:30:19;;;;;;;0.50;0.50;;;15.50;65.80;;;;;;5055483;28;20049;-26
2022/02/20 07:32:44;;;;;;;1.65;0.60;;;15.40;66.00;;;;;;5056056;28;20033;-27
2022/02/20 07:35:10;;;;;;;0.57;0.50;;;15.50;65.80;;;;;;5060996;28;20049;-28
2022/02/20 07:37:35;;;;;;;0.82;0.63;;;15.40;66.00;;;;;;5064001;28;20098;-27
2022/02/20 07:40:01;;;;;;;0.40;0.40;;;15.50;65.90;;;;;;5064231;28;20040;-27
2022/02/20 07:42:27;;;;;;;1.75;0.50;;;15.50;65.60;;;;;;5067817;28;20103;-28
2022/02/20 07:44:52;;;;;;;0.68;0.50;;;15.50;65.70;;;;;;5071553;28;20066;-30
2022/02/20 07:47:18;;;;;;;0.40;0.40;;;15.50;65.70;;;;;;5064120;28;20041;-27
2022/02/20 07:49:43;;;;;;;0.50;0.50;;;15.50;65.60;;;;;;5062587;28;20066;-28
2022/02/20 07:52:09;;;;;;;0.68;0.50;;;15.50;65.60;;;;;;5067429;28;20036;-27
2022/02/20 07:54:35;;;;;;;1.20;0.65;;;15.50;65.70;;;;;;5068359;28;20148;-27
2022/02/20 07:57:00;;;;;;;0.70;0.68;;;15.60;65.60;;;;;;5068690;28;20044;-28
2022/02/20 07:59:26;;;;;;;0.50;0.30;;;15.60;65.40;;;;;;5067108;28;20047;-27
2022/02/20 08:01:52;;;;;;;0.90;0.43;;;15.60;65.50;;;;;;5064154;28;20040;-27
2022/02/20 08:04:18;;;;;;;0.40;0.30;;;15.60;65.50;;;;;;5060249;28;20040;-27
2022/02/20 08:06:44;;;;;;;1.00;0.50;;;15.60;65.50;;;;;;5063304;28;20071;-27
2022/02/20 08:09:09;;;;;;;0.82;0.50;;;15.60;65.60;;;;;;5064116;28;20060;-27
2022/02/20 08:11:35;;;;;;;0.85;0.43;;;15.60;65.70;;;;;;5054999;28;20040;-27
2022/02/20 08:14:01;;;;;;;0.82;0.57;;;15.50;65.70;;;;;;5059213;28;20461;-27
2022/02/20 08:16:27;;;;;;;0.40;0.30;;;15.60;65.50;;;;;;5070640;28;20041;-27
2022/02/20 08:18:53;;;;;;;0.50;0.40;;;15.50;65.60;;;;;;5066811;28;20048;-27
2022/02/20 08:21:18;;;;;;;0.95;0.60;;;15.60;65.70;;;;;;5063451;28;20524;-27
2022/02/20 08:23:47;;;;;;;0.60;0.40;;;15.60;65.60;;;;;;5058606;28;20044;-27
2022/02/20 08:26:13;;;;;;;0.73;0.43;;;15.60;65.60;;;;;;5060909;28;20063;-28
2022/02/20 08:28:38;;;;;;;1.33;0.70;;;15.60;65.50;;;;;;5064270;28;20498;-27
2022/02/20 08:31:04;;;;;;;0.63;0.57;;;15.60;65.70;;;;;;5055324;28;20068;-27
2022/02/20 08:33:30;;;;;;;1.10;0.70;;;15.50;65.60;;;;;;5054826;28;20072;-27
2022/02/20 08:35:55;;;;;;;1.52;0.65;;;15.50;65.50;;;;;;5054070;28;20033;-27
2022/02/20 08:38:21;;;;;;;0.55;0.38;;;15.50;65.60;;;;;;5057059;28;20393;-27
2022/02/20 08:40:50;;;;;;;1.48;0.40;;;15.50;65.50;;;;;;5061613;28;20563;-27
2022/02/20 08:43:17;;;;;;;0.50;0.40;;;15.40;65.60;;;;;;4358515;28;10001363;-27
2022/02/20 08:45:44;;;;;;;2.00;0.40;;;15.50;65.70;;;;;;5071034;28;20044;-27
2022/02/20 08:48:10;;;;;;;1.45;0.52;;;15.50;65.60;;;;;;5065440;28;20048;-27
2022/02/20 08:50:36;;;;;;;0.90;0.68;;;15.50;65.70;;;;;;5070713;28;20886;-27
2022/02/20 08:53:01;;;;;;;1.63;0.68;;;15.60;65.60;;;;;;5071109;28;20071;-27
2022/02/20 08:55:27;;;;;;;0.50;0.40;;;15.60;65.70;;;;;;5068780;28;20045;-27
2022/02/20 08:57:53;;;;;;;1.08;0.50;;;15.60;65.70;;;;;;5071822;28;20124;-28
2022/02/20 09:00:19;;;;;;;3.03;0.98;;;15.60;65.50;;;;;;5071359;28;20165;-27
2022/02/20 09:02:44;;;;;;;1.95;0.80;;;15.70;65.50;;;;;;5075230;28;20229;-27
2022/02/20 09:05:10;;;;;;;1.33;0.47;;;15.70;65.40;;;;;;5067898;28;20463;-27
2022/02/20 09:07:36;;;;;;;1.60;0.70;;;15.70;65.40;;;;;;5071152;28;20045;-28
2022/02/20 09:10:04;;;;;;;0.88;0.68;;;15.70;65.50;;;;;;5072375;28;20044;-27
2022/02/20 09:12:30;;;;;;;2.05;0.50;;;15.70;65.30;;;;;;5070570;28;20060;-27
2022/02/20 09:14:55;;;;;;;0.90;0.50;;;15.70;65.20;;;;;;5074817;28;20040;-27
2022/02/20 09:17:21;;;;;;;1.50;0.73;;;15.80;65.20;;;;;;5069460;28;20044;-27
2022/02/20 09:19:47;;;;;;;2.67;0.57;;;15.80;65.10;;;;;;5070210;28;20057;-27
2022/02/20 09:22:14;;;;;;;0.57;0.50;;;15.80;65.10;;;;;;5066228;28;20083;-28
2022/02/20 09:24:39;;;;;;;4.07;0.80;;;15.80;64.80;;;;;;5071158;28;20086;-27
2022/02/20 09:27:05;;;;;;;0.80;0.60;;;15.80;65.00;;;;;;5071988;28;20049;-27
2022/02/20 09:29:35;;;;;;;3.15;0.60;;;15.80;65.00;;;;;;5073521;28;20083;-27
2022/02/20 09:32:01;;;;;;;0.75;0.47;;;15.80;64.90;;;;;;5070947;28;20045;-27
2022/02/20 09:34:27;;;;;;;1.25;0.70;;;15.80;64.90;;;;;;5073739;28;20908;-28
2022/02/20 09:36:52;;;;;;;1.50;0.80;;;15.80;65.10;;;;;;5074575;28;20104;-28
2022/02/20 09:39:18;;;;;;;2.17;0.57;;;15.90;64.90;;;;;;5070670;28;20055;-27
2022/02/20 09:41:44;;;;;;;1.50;0.60;;;15.90;64.80;;;;;;5074342;28;20048;-27
2022/02/20 09:44:09;;;;;;;1.77;0.60;;;15.90;64.70;;;;;;5058072;28;20472;-27
2022/02/20 09:46:35;;;;;;;1.40;0.40;;;15.90;64.80;;;;;;5061570;28;20071;-27
2022/02/20 09:49:00;;;;;;;0.90;0.65;;;16.00;64.80;;;;;;5073630;28;20048;-27
2022/02/20 09:51:28;;;;;;;0.88;0.50;;;15.90;64.70;;;;;;5072231;28;20044;-27
2022/02/20 09:53:54;;;;;;;0.80;0.50;;;15.90;64.70;;;;;;5061091;28;20049;-27
2022/02/20 09:56:21;;;;;;;1.65;0.40;;;15.90;64.70;;;;;;5071767;28;20080;-27
2022/02/20 09:58:46;;;;;;;1.88;0.47;;;15.90;64.70;;;;;;5068869;28;20102;-27
2022/02/20 10:01:13;;;;;;;0.85;0.50;;;15.90;64.70;;;;;;5065392;28;20379;-27
2022/02/20 10:03:40;;;;;;;0.68;0.60;;;15.90;64.60;;;;;;5071640;28;20053;-27
2022/02/20 10:06:11;;;;;;;1.08;0.70;;;15.90;64.50;;;;;;5068455;28;20114;-27
2022/02/20 10:08:38;;;;;;;0.75;0.57;;;16.00;64.60;;;;;;5059568;28;20075;-27
2022/02/20 10:11:29;;;;;;;0.65;0.50;;;16.00;64.70;;;;;;5064659;28;20053;-27
2022/02/20 10:13:56;;;;;;;0.80;0.63;;;16.00;64.50;;;;;;5059119;28;20057;-27
2022/02/20 10:16:30;;;;;;;0.60;0.50;;;16.00;64.50;;;;;;5052654;28;20132;-27
2022/02/20 10:18:56;;;;;;;1.20;0.63;;;16.00;64.50;;;;;;5061314;28;20090;-27
2022/02/20 10:21:27;;;;;;;1.00;0.32;;;16.00;64.60;;;;;;5072746;28;20109;-27
2022/02/20 10:23:54;;;;;;;2.30;0.70;;;16.00;64.50;;;;;;5054779;28;20045;-27
2022/02/20 10:26:22;;;;;;;1.15;0.50;;;16.00;64.50;;;;;;5052982;28;20048;-28
2022/02/20 10:29:02;;;;;;;2.08;0.68;;;16.00;64.80;;;;;;5063504;28;20048;-27
2022/02/20 10:31:44;;;;;;;0.50;0.35;;;16.00;64.80;;;;;;5072286;28;20074;-27
2022/02/20 10:34:24;;;;;;;4.25;0.60;;;16.00;64.70;;;;;;5071661;28;20059;-27
2022/02/20 10:36:58;;;;;;;1.00;0.90;;;16.00;64.70;;;;;;5053013;28;20073;-27
2022/02/20 10:39:35;;;;;;;1.02;0.80;;;16.00;64.70;;;;;;5070880;28;20527;-27
2022/02/20 10:42:12;;;;;;;0.65;0.50;;;16.00;64.70;;;;;;5072994;28;20102;-30
2022/02/20 10:45:00;;;;;;;1.25;0.70;;;16.00;64.70;;;;;;5053143;28;20049;-27
2022/02/20 10:47:26;;;;;;;1.58;0.70;;;16.10;64.60;;;;;;5065723;28;20106;-27
2022/02/20 10:49:52;;;;;;;1.25;1.15;;;16.10;64.60;;;;;;5067616;28;20502;-27
2022/02/20 10:52:19;;;;;;;1.95;0.80;;;16.00;64.60;;;;;;5071291;28;20398;-33
2022/02/20 10:55:02;;;;;;;1.38;0.77;;;16.10;64.60;;;;;;5064793;28;20083;-27
2022/02/20 10:57:35;;;;;;;1.27;0.88;;;16.10;64.60;;;;;;5070284;28;20063;-27
2022/02/20 11:00:17;;;;;;;1.42;0.73;;;16.10;64.60;;;;;;5071652;28;20135;-27
2022/02/20 11:02:43;;;;;;;2.15;0.60;;;16.10;64.60;;;;;;5057051;28;20557;-27
2022/02/20 11:05:10;;;;;;;2.47;0.60;;;16.20;64.50;;;;;;5063995;28;20075;-27
2022/02/20 11:07:39;;;;;;;0.70;0.60;;;16.20;64.50;;;;;;5071312;28;20076;-27
2022/02/20 11:10:06;;;;;;;1.30;0.75;;;16.20;64.40;;;;;;5062840;28;20053;-27
2022/02/20 11:12:32;;;;;;;0.73;0.43;;;16.20;64.40;;;;;;5068935;28;20459;-27
2022/02/20 11:14:57;;;;;;;1.73;0.40;;;16.20;64.30;;;;;;5069147;28;20056;-27
2022/02/20 11:17:23;;;;;;;0.80;0.70;;;16.20;64.20;;;;;;5049308;28;20076;-27
2022/02/20 11:19:49;;;;;;;1.40;0.70;;;16.20;64.10;;;;;;5044120;28;20071;-27
2022/02/20 11:22:14;;;;;;;1.05;0.70;;;16.30;64.20;;;;;;5047938;28;20054;-28
2022/02/20 11:24:40;;;;;;;1.70;0.68;;;16.30;64.10;;;;;;5067721;28;20109;-27
2022/02/20 11:27:07;;;;;;;1.52;0.77;;;16.30;64.00;;;;;;5055355;28;20053;-28
2022/02/20 11:29:32;;;;;;;0.98;0.55;;;16.40;63.90;;;;;;5070156;28;20094;-27
2022/02/20 11:31:58;;;;;;;1.08;0.80;;;16.40;63.80;;;;;;5060768;28;20052;-27
2022/02/20 11:34:24;;;;;;;0.93;0.77;;;16.40;64.50;;;;;;5065039;28;20047;-27
2022/02/20 11:36:52;;;;;;;1.40;0.60;;;16.40;63.70;;;;;;5064595;28;20052;-27
2022/02/20 11:39:17;;;;;;;2.10;0.60;;;16.40;63.80;;;;;;5064936;28;20044;-27
2022/02/20 11:42:06;;;;;;;1.80;0.60;;;16.40;63.90;;;;;;5069142;28;20505;-27
2022/02/20 11:44:52;;;;;;;0.68;0.60;;;16.40;64.00;;;;;;5060557;28;20048;-27
2022/02/20 11:47:43;;;;;;;2.85;1.20;;;16.40;64.20;;;;;;5072096;28;20148;-27
2022/02/20 11:50:17;;;;;;;1.10;0.60;;;16.30;64.60;;;;;;5064881;28;20187;-27
2022/02/20 11:52:54;;;;;;;1.30;0.73;;;16.30;64.70;;;;;;5063347;28;20044;-28
2022/02/20 11:55:39;;;;;;;1.88;0.73;;;16.30;65.30;;;;;;5061887;28;20118;-27
2022/02/20 11:58:11;;;;;;;0.63;0.50;;;16.40;65.60;;;;;;5063028;28;20670;-27
2022/02/20 12:00:57;;;;;;;0.63;0.60;;;16.40;65.70;;;;;;5063186;28;20052;-27
2022/02/20 12:03:44;;;;;;;1.00;0.90;;;16.40;66.30;;;;;;5057490;28;20055;-27
2022/02/20 12:08:43;;;;;;;1.02;0.52;;;16.40;67.10;;;;;;5063261;28;20062;-27
2022/02/20 12:11:19;;;;;;;0.70;0.52;;;16.40;66.90;;;;;;5062809;28;20041;-27
2022/02/20 12:13:51;;;;;;;1.52;0.88;;;16.40;68.30;;;;;;5061572;28;20958;-27
2022/02/20 12:16:28;;;;;;;1.05;0.57;;;16.40;67.50;;;;;;5063313;28;20057;-27
2022/02/20 12:19:15;;;;;;;1.13;0.50;;;16.40;68.40;;;;;;5059702;28;20059;-27
2022/02/20 12:21:57;;;;;;;1.35;0.75;;;16.40;67.90;;;;;;5063014;28;20413;-27
2022/02/20 12:24:39;;;;;;;1.42;0.95;;;16.50;67.90;;;;;;5068679;28;20083;-27
2022/02/20 12:27:04;;;;;;;2.30;1.20;;;16.40;67.90;;;;;;5069789;28;20516;-27
2022/02/20 12:29:38;;;;;;;1.15;0.82;;;16.40;67.60;;;;;;5060605;28;20546;-27
2022/02/20 12:32:17;;;;;;;1.33;0.80;;;16.40;67.60;;;;;;5069037;28;20742;-27
2022/02/20 12:35:15;;;;;;;1.40;1.02;;;16.40;67.50;;;;;;5070194;28;20041;-27
2022/02/20 12:37:56;;;;;;;0.70;0.70;;;16.40;67.50;;;;;;5075297;28;20052;-27
2022/02/20 12:40:22;;;;;;;2.33;0.73;;;16.30;67.50;;;;;;5075529;28;20044;-28
2022/02/20 12:42:57;;;;;;;0.85;0.60;;;16.40;67.40;;;;;;5061951;28;20056;-27
2022/02/20 12:45:29;;;;;;;1.10;0.93;;;16.40;67.20;;;;;;5072017;28;20052;-28
2022/02/20 12:48:00;;;;;;;1.17;0.80;;;16.40;67.20;;;;;;5065641;28;20116;-28